Time;durP1;ratioP1;P1;durP2;ratioP2;P2;SDS_P1;SDS_P2;PMS_P1;PMS_P2;Temp;Humidity;BMP_temperature;BMP_pressure;BME280_temperature;BME280_humidity;BME280_pressure;Samples;Min_cycle;Max_cycle;Signal;HPM_P1;HPM_P2
2021/01/09 00:00:34;;;;;;;15.13;11.53;;;;;;;1.49;80.39;100739.19;5039330;28;20096;-73
2021/01/09 00:02:59;;;;;;;17.02;11.40;;;;;;;1.47;80.35;100741.75;5042460;28;20067;-72
2021/01/09 00:05:24;;;;;;;13.97;10.17;;;;;;;1.53;80.91;100741.06;5041453;28;20053;-72
2021/01/09 00:07:50;;;;;;;16.15;10.88;;;;;;;1.53;80.48;100741.06;5033039;28;20037;-72
2021/01/09 00:10:15;;;;;;;15.80;11.00;;;;;;;1.49;80.45;100739.19;5039892;28;20048;-72
2021/01/09 00:12:40;;;;;;;15.37;11.23;;;;;;;1.53;80.20;100744.53;5041217;28;20040;-72
2021/01/09 00:15:07;;;;;;;15.17;10.37;;;;;;;1.49;80.27;100747.91;5039122;28;20069;-72
2021/01/09 00:17:34;;;;;;;16.35;11.23;;;;;;;1.42;80.27;100745.91;5039338;28;20052;-71
2021/01/09 00:20:00;;;;;;;14.20;10.87;;;;;;;1.45;81.03;100746.00;5042517;28;20033;-72
2021/01/09 00:22:25;;;;;;;14.57;10.55;;;;;;;1.58;80.10;100747.31;5042200;28;20060;-72
2021/01/09 00:24:50;;;;;;;17.23;12.03;;;;;;;1.53;80.05;100751.47;5040018;28;20079;-72
2021/01/09 00:27:16;;;;;;;15.07;10.93;;;;;;;1.57;80.07;100750.72;5039100;28;20053;-72
2021/01/09 00:29:42;;;;;;;14.63;10.27;;;;;;;1.55;79.68;100760.22;5039912;28;20038;-72
2021/01/09 00:32:08;;;;;;;15.40;11.03;;;;;;;1.46;80.18;100759.88;5042181;28;20546;-72
2021/01/09 00:34:33;;;;;;;14.80;10.30;;;;;;;1.44;80.37;100761.53;5042207;28;20033;-72
2021/01/09 00:36:59;;;;;;;13.47;9.37;;;;;;;1.43;79.72;100767.59;5038945;28;20041;-73
2021/01/09 00:39:24;;;;;;;16.87;12.10;;;;;;;1.45;79.83;100768.53;5038849;28;20030;-72
2021/01/09 00:41:50;;;;;;;16.20;11.48;;;;;;;1.49;79.17;100770.38;5041218;28;20045;-72
2021/01/09 00:44:16;;;;;;;16.47;11.77;;;;;;;1.51;79.23;100768.72;5041989;28;20154;-72
2021/01/09 00:46:41;;;;;;;19.27;11.97;;;;;;;1.49;79.20;100768.69;5041052;28;20246;-72
2021/01/09 00:49:06;;;;;;;14.17;10.97;;;;;;;1.51;79.28;100772.22;5039799;28;20041;-72
2021/01/09 00:51:32;;;;;;;16.15;11.13;;;;;;;1.54;79.18;100768.84;5042336;28;20048;-72
2021/01/09 00:53:57;;;;;;;16.30;11.33;;;;;;;1.51;78.83;100774.81;5045410;28;20041;-72
2021/01/09 00:56:22;;;;;;;17.47;11.77;;;;;;;1.47;79.06;100774.69;5045788;28;20040;-72
2021/01/09 00:58:48;;;;;;;16.37;12.03;;;;;;;1.46;78.53;100778.09;5042267;28;20116;-72
2021/01/09 01:01:14;;;;;;;18.63;12.70;;;;;;;1.45;78.71;100773.75;5042254;28;20060;-72
2021/01/09 01:03:39;;;;;;;17.25;11.25;;;;;;;1.40;78.86;100776.16;5042698;28;20072;-72
2021/01/09 01:06:05;;;;;;;16.47;11.90;;;;;;;1.41;79.07;100782.25;5045590;28;20518;-72
2021/01/09 01:08:30;;;;;;;19.50;13.07;;;;;;;1.46;78.59;100775.50;5047188;28;20079;-72
2021/01/09 01:10:56;;;;;;;18.53;12.33;;;;;;;1.44;78.83;100775.47;5045427;28;20048;-72
2021/01/09 01:13:22;;;;;;;16.47;11.83;;;;;;;1.47;78.52;100777.28;5043908;28;20040;-72
2021/01/09 01:15:49;;;;;;;17.33;12.27;;;;;;;1.47;78.05;100783.38;5043408;28;20032;-72
2021/01/09 01:18:14;;;;;;;15.47;10.90;;;;;;;1.46;77.98;100784.19;5041972;28;20041;-72
2021/01/09 01:20:39;;;;;;;16.03;11.60;;;;;;;1.43;78.33;100791.00;5042661;28;20034;-72
2021/01/09 01:23:04;;;;;;;15.40;10.80;;;;;;;1.43;78.33;100786.69;5044977;28;20040;-72
2021/01/09 01:25:30;;;;;;;15.57;10.47;;;;;;;1.37;78.64;100781.28;5045234;28;20036;-72
2021/01/09 01:27:56;;;;;;;18.10;12.13;;;;;;;1.40;78.73;100777.91;5042097;28;20079;-72
2021/01/09 01:30:21;;;;;;;17.50;12.27;;;;;;;1.46;77.90;100791.97;5041536;28;20052;-72
2021/01/09 01:32:46;;;;;;;15.93;11.20;;;;;;;1.49;78.06;100791.19;5043114;28;20048;-72
2021/01/09 01:35:12;;;;;;;17.47;12.33;;;;;;;1.38;77.92;100782.16;5044990;28;20045;-72
2021/01/09 01:37:37;;;;;;;18.57;13.00;;;;;;;1.43;77.96;100793.59;5044275;28;20033;-72
2021/01/09 01:40:05;;;;;;;19.03;11.83;;;;;;;1.44;78.14;100787.56;5041467;28;20045;-72
2021/01/09 01:42:31;;;;;;;18.02;11.68;;;;;;;1.43;78.08;100784.06;5041096;28;20037;-72
2021/01/09 01:44:56;;;;;;;16.55;11.82;;;;;;;1.46;78.03;100785.91;5044520;28;20609;-72
2021/01/09 01:47:21;;;;;;;20.83;13.37;;;;;;;1.48;78.09;100795.53;5044801;28;20052;-72
2021/01/09 01:49:48;;;;;;;16.67;10.90;;;;;;;1.56;78.03;100781.91;5042702;28;20484;-72
2021/01/09 01:52:15;;;;;;;17.87;11.60;;;;;;;1.56;77.68;100788.00;5041002;28;20396;-72
2021/01/09 01:54:42;;;;;;;19.63;12.93;;;;;;;1.56;77.66;100788.00;5042170;28;20091;-72
2021/01/09 01:57:12;;;;;;;17.33;12.07;;;;;;;1.51;78.19;100794.75;5044546;28;20526;-72
2021/01/09 01:59:38;;;;;;;20.67;13.10;;;;;;;1.55;78.12;100788.84;5043877;28;20045;-72
2021/01/09 02:02:06;;;;;;;18.73;12.25;;;;;;;1.57;78.45;100794.06;5040978;28;20033;-72
2021/01/09 02:04:31;;;;;;;21.73;12.18;;;;;;;1.57;78.28;100788.88;5040668;28;20037;-72
2021/01/09 02:07:00;;;;;;;19.43;12.87;;;;;;;1.58;78.24;100790.66;5044248;28;20132;-72
2021/01/09 02:09:28;;;;;;;18.80;11.90;;;;;;;1.55;78.41;100799.25;5044327;28;20095;-72
2021/01/09 02:12:07;;;;;;;17.95;12.20;;;;;;;1.55;78.52;100796.63;5041369;28;20068;-72
2021/01/09 02:14:43;;;;;;;19.75;12.88;;;;;;;1.49;78.70;100794.72;5040665;28;20076;-72
2021/01/09 02:17:09;;;;;;;18.27;11.43;;;;;;;1.48;78.33;100794.66;5033954;28;20049;-72
2021/01/09 02:19:38;;;;;;;18.00;11.50;;;;;;;1.42;79.05;100797.03;5040809;28;20035;-72
2021/01/09 02:22:05;;;;;;;21.17;12.63;;;;;;;1.38;79.07;100797.75;5043969;28;20399;-72
2021/01/09 02:24:30;;;;;;;19.97;13.17;;;;;;;1.27;78.68;100798.25;5044163;28;20457;-72
2021/01/09 02:26:56;;;;;;;19.27;12.87;;;;;;;1.28;78.57;100802.66;5040968;28;20037;-72
2021/01/09 02:29:23;;;;;;;17.50;12.17;;;;;;;1.31;78.59;100791.47;5040416;28;20044;-72
2021/01/09 02:32:03;;;;;;;20.77;12.07;;;;;;;1.27;78.59;100803.47;5042540;28;20040;-72
2021/01/09 02:34:53;;;;;;;19.10;12.93;;;;;;;1.27;78.66;100802.56;5043637;28;20033;-72
2021/01/09 02:37:18;;;;;;;21.70;13.80;;;;;;;1.27;78.64;100793.06;5034313;28;20049;-72
2021/01/09 02:39:45;;;;;;;19.50;11.57;;;;;;;1.31;78.18;100801.88;5041713;28;20116;-72
2021/01/09 02:42:10;;;;;;;19.27;13.00;;;;;;;1.20;78.03;100800.56;5043564;28;20041;-72
2021/01/09 02:44:37;;;;;;;20.27;12.37;;;;;;;1.17;78.47;100801.34;5043198;28;20052;-72
2021/01/09 02:47:05;;;;;;;18.67;11.97;;;;;;;1.14;77.92;100808.16;5040225;28;20041;-72
2021/01/09 02:49:30;;;;;;;20.27;12.70;;;;;;;1.12;77.84;100804.63;5038796;28;20451;-72
2021/01/09 02:51:56;;;;;;;22.53;12.47;;;;;;;1.09;77.89;100815.78;5041880;28;20033;-72
2021/01/09 02:54:21;;;;;;;19.90;12.63;;;;;;;1.05;77.59;100808.72;5043304;28;20458;-72
2021/01/09 02:56:46;;;;;;;19.40;12.77;;;;;;;1.03;78.01;100810.38;5041671;28;20503;-72
2021/01/09 02:59:12;;;;;;;24.03;13.80;;;;;;;1.01;77.73;100812.91;5038719;28;20509;-72
2021/01/09 03:01:37;;;;;;;20.97;12.53;;;;;;;0.96;77.81;100810.97;5040830;28;20044;-72
2021/01/09 03:04:02;;;;;;;19.77;12.37;;;;;;;0.86;78.76;100802.84;5041414;28;20079;-72
2021/01/09 03:06:27;;;;;;;22.77;13.70;;;;;;;0.78;78.83;100816.38;5039794;28;20033;-72
2021/01/09 03:08:53;;;;;;;22.03;13.47;;;;;;;0.70;79.40;100816.06;5042404;28;20040;-72
2021/01/09 03:11:18;;;;;;;24.27;14.70;;;;;;;0.65;79.75;100815.00;5042974;28;20041;-72
2021/01/09 03:13:45;;;;;;;26.83;14.43;;;;;;;0.67;80.03;100815.97;5041312;28;20044;-72
2021/01/09 03:16:10;;;;;;;21.97;13.53;;;;;;;0.68;80.53;100822.03;5039783;28;20033;-72
2021/01/09 03:18:35;;;;;;;27.30;15.83;;;;;;;0.70;80.68;100820.38;5038657;28;20447;-72
2021/01/09 03:21:01;;;;;;;24.70;14.17;;;;;;;0.76;81.09;100818.00;5043187;28;20037;-72
2021/01/09 03:23:26;;;;;;;28.87;16.37;;;;;;;0.73;81.10;100810.97;5041508;28;20037;-72
2021/01/09 03:25:52;;;;;;;25.87;15.07;;;;;;;0.78;80.79;100824.16;5040520;28;20501;-72
2021/01/09 03:28:17;;;;;;;26.77;15.23;;;;;;;0.78;80.33;100816.38;5039625;28;20427;-72
2021/01/09 03:30:43;;;;;;;27.87;15.50;;;;;;;0.74;80.99;100817.97;5040587;28;20037;-72
2021/01/09 03:33:08;;;;;;;26.40;15.40;;;;;;;0.79;80.86;100823.34;5042558;28;20036;-72
2021/01/09 03:35:33;;;;;;;29.20;17.53;;;;;;;0.85;80.31;100828.75;5042935;28;20048;-72
2021/01/09 03:37:59;;;;;;;28.57;16.43;;;;;;;0.78;80.59;100829.34;5039286;28;20034;-72
2021/01/09 03:40:24;;;;;;;29.50;17.00;;;;;;;0.76;80.92;100826.72;5039421;28;20038;-72
2021/01/09 03:42:49;;;;;;;28.20;17.07;;;;;;;0.81;81.10;100830.38;5041245;28;20076;-72
2021/01/09 03:45:14;;;;;;;31.50;18.17;;;;;;;0.90;80.35;100829.81;5042816;28;20032;-72
2021/01/09 03:47:40;;;;;;;31.33;18.30;;;;;;;0.88;80.90;100826.28;5041798;28;20036;-72
2021/01/09 03:50:06;;;;;;;28.50;16.50;;;;;;;0.88;80.19;100832.34;5039219;28;20095;-72
2021/01/09 03:52:31;;;;;;;28.80;16.63;;;;;;;0.83;80.67;100826.09;5038879;28;20524;-72
2021/01/09 03:54:57;;;;;;;28.27;16.17;;;;;;;0.88;80.88;100823.69;5041131;28;20036;-72
2021/01/09 03:57:22;;;;;;;27.83;15.80;;;;;;;0.83;80.08;100838.22;5042723;28;20510;-72
2021/01/09 03:59:48;;;;;;;32.40;18.70;;;;;;;0.79;80.94;100828.53;5040636;28;20033;-72
2021/01/09 04:02:13;;;;;;;26.70;15.93;;;;;;;0.77;80.34;100833.66;5037599;28;20033;-72
2021/01/09 04:04:38;;;;;;;28.80;17.20;;;;;;;0.72;80.85;100836.91;5039823;28;20042;-72
2021/01/09 04:07:04;;;;;;;27.93;16.20;;;;;;;0.72;81.09;100839.53;5042671;28;20086;-72
2021/01/09 04:09:29;;;;;;;25.07;15.80;;;;;;;0.75;80.35;100832.72;5042463;28;20037;-72
2021/01/09 04:11:54;;;;;;;25.63;14.97;;;;;;;0.65;80.63;100839.28;5039721;28;20074;-71
2021/01/09 04:14:19;;;;;;;26.37;15.47;;;;;;;0.59;81.12;100832.97;5038841;28;20079;-72
2021/01/09 04:16:45;;;;;;;25.83;15.50;;;;;;;0.61;80.54;100839.09;5040405;28;20042;-72
2021/01/09 04:19:10;;;;;;;28.07;16.03;;;;;;;0.54;81.12;100844.88;5042505;28;20083;-72
2021/01/09 04:21:45;;;;;;;27.37;15.90;;;;;;;0.55;81.12;100838.84;5042179;28;20028;-72
2021/01/09 04:24:12;;;;;;;25.13;15.73;;;;;;;0.53;81.56;100836.22;5038799;28;20124;-72
2021/01/09 04:26:37;;;;;;;28.00;16.13;;;;;;;0.56;81.59;100840.63;5043441;28;20389;-72
2021/01/09 04:29:02;;;;;;;29.53;17.37;;;;;;;0.51;81.29;100840.44;5046148;28;20029;-72
2021/01/09 04:31:27;;;;;;;26.70;14.40;;;;;;;0.50;82.07;100843.88;5046172;28;20044;-72
2021/01/09 04:33:53;;;;;;;27.83;16.00;;;;;;;0.53;81.59;100840.53;5043173;28;20033;-72
2021/01/09 04:36:18;;;;;;;27.77;16.17;;;;;;;0.55;81.35;100841.44;5042754;28;20042;-72
2021/01/09 04:38:44;;;;;;;26.60;14.97;;;;;;;0.54;81.64;100843.16;5043862;28;20048;-72
2021/01/09 04:41:09;;;;;;;26.77;15.87;;;;;;;0.54;81.34;100840.56;5044815;28;20029;-72
2021/01/09 04:43:35;;;;;;;29.77;16.80;;;;;;;0.57;81.81;100845.00;5042148;28;20052;-71
2021/01/09 04:46:00;;;;;;;27.13;16.50;;;;;;;0.59;81.75;100839.03;5036314;28;20519;-72
2021/01/09 04:48:26;;;;;;;27.40;16.47;;;;;;;0.65;81.18;100843.56;5042503;28;20061;-72
2021/01/09 04:50:52;;;;;;;28.03;15.73;;;;;;;0.67;81.54;100849.72;5045050;28;20041;-72
2021/01/09 04:53:19;;;;;;;25.97;14.47;;;;;;;0.69;81.48;100845.47;5042873;28;20107;-72
2021/01/09 04:55:45;;;;;;;29.30;15.57;;;;;;;0.70;81.38;100844.66;5043766;28;20049;-72
2021/01/09 04:58:11;;;;;;;27.90;15.50;;;;;;;0.68;80.72;100848.88;5045683;28;20033;-71
2021/01/09 05:00:36;;;;;;;24.67;14.43;;;;;;;0.72;80.58;100857.72;5045162;28;20172;-72
2021/01/09 05:03:02;;;;;;;26.90;15.00;;;;;;;0.65;81.32;100848.78;5041882;28;20037;-72
2021/01/09 05:05:28;;;;;;;23.33;14.57;;;;;;;0.63;81.43;100859.13;5042172;28;20037;-72
2021/01/09 05:07:53;;;;;;;24.80;14.13;;;;;;;0.63;80.65;100856.53;5044876;28;20095;-71
2021/01/09 05:10:18;;;;;;;24.60;14.83;;;;;;;0.56;81.10;100858.81;5044140;28;20037;-72
2021/01/09 05:12:44;;;;;;;24.20;15.37;;;;;;;0.54;80.46;100861.34;5043667;28;20040;-72
2021/01/09 05:15:10;;;;;;;24.53;14.07;;;;;;;0.48;81.49;100861.13;5040608;28;20052;-72
2021/01/09 05:17:35;;;;;;;23.53;13.63;;;;;;;0.46;81.55;100867.94;5042139;28;20037;-72
2021/01/09 05:20:03;;;;;;;23.33;14.23;;;;;;;0.44;81.20;100859.22;5045361;28;20041;-72
2021/01/09 05:22:29;;;;;;;22.10;13.60;;;;;;;0.41;81.53;100862.56;5045067;28;20036;-72
2021/01/09 05:24:55;;;;;;;22.90;13.83;;;;;;;0.48;81.44;100865.44;5042294;28;20083;-72
2021/01/09 05:27:22;;;;;;;27.07;14.67;;;;;;;0.49;81.75;100872.38;5041667;28;20048;-72
2021/01/09 05:29:54;;;;;;;23.80;14.90;;;;;;;0.51;81.33;100870.75;5043408;28;20036;-73
2021/01/09 05:32:20;;;;;;;23.92;14.95;;;;;;;0.53;82.00;100871.69;5044842;28;20037;-72
2021/01/09 05:34:51;;;;;;;24.90;15.43;;;;;;;0.59;81.54;100874.53;5042958;28;20045;-72
2021/01/09 05:37:19;;;;;;;22.00;13.30;;;;;;;0.62;81.35;100877.22;5041602;28;20038;-72
2021/01/09 05:40:03;;;;;;;22.73;14.30;;;;;;;0.59;81.43;100878.00;5042883;28;20140;-72
2021/01/09 05:42:29;;;;;;;24.67;14.53;;;;;;;0.62;81.02;100877.22;5044659;28;20048;-72
2021/01/09 05:44:57;;;;;;;21.73;12.80;;;;;;;0.67;80.64;100880.03;5042092;28;20030;-72
2021/01/09 05:47:24;;;;;;;22.23;13.67;;;;;;;0.72;81.16;100881.97;5041401;28;20492;-72
2021/01/09 05:49:51;;;;;;;20.87;12.47;;;;;;;0.72;80.32;100879.38;5043448;28;20040;-72
2021/01/09 05:52:17;;;;;;;21.07;13.80;;;;;;;0.67;80.80;100888.69;5043129;28;20033;-72
2021/01/09 05:54:43;;;;;;;20.87;12.73;;;;;;;0.67;81.33;100883.50;5043419;28;20037;-72
2021/01/09 05:57:15;;;;;;;23.10;14.30;;;;;;;0.74;80.83;100887.25;5041228;28;20041;-72
2021/01/09 05:59:41;;;;;;;23.02;13.40;;;;;;;0.80;80.95;100895.25;5042018;28;20029;-72
2021/01/09 06:02:08;;;;;;;22.20;12.90;;;;;;;0.82;80.98;100891.91;5044468;28;20032;-72
2021/01/09 06:04:41;;;;;;;21.40;13.27;;;;;;;0.81;80.29;100886.63;5044354;28;20068;-72
2021/01/09 06:07:19;;;;;;;20.40;13.02;;;;;;;0.80;80.95;100890.06;5032695;28;20442;-72
2021/01/09 06:10:08;;;;;;;22.23;13.30;;;;;;;0.78;80.96;100890.00;5038012;28;20053;-72
2021/01/09 06:12:45;;;;;;;22.77;14.40;;;;;;;0.87;80.65;100894.69;5037208;28;20041;-71
2021/01/09 06:15:19;;;;;;;20.43;12.73;;;;;;;0.94;80.80;100893.19;5034244;28;20100;-70
2021/01/09 06:17:44;;;;;;;19.73;12.27;;;;;;;0.97;80.69;100888.09;5042311;28;20099;-71
2021/01/09 06:20:10;;;;;;;21.03;13.13;;;;;;;0.98;80.44;100897.69;5044204;28;20483;-71
2021/01/09 06:22:36;;;;;;;19.63;12.63;;;;;;;0.95;80.46;100894.97;5043492;28;20032;-71
2021/01/09 06:25:02;;;;;;;19.47;12.30;;;;;;;0.93;80.16;100900.09;5040710;28;20037;-71
2021/01/09 06:27:31;;;;;;;20.77;13.00;;;;;;;1.00;80.44;100898.63;5040544;28;20108;-71
2021/01/09 06:30:04;;;;;;;21.13;13.77;;;;;;;0.92;80.60;100902.63;5043415;28;20136;-71
2021/01/09 06:32:35;;;;;;;20.57;13.10;;;;;;;0.92;80.66;100906.13;5042527;28;20488;-70
2021/01/09 06:35:04;;;;;;;19.70;11.80;;;;;;;0.92;80.69;100913.94;5032519;28;20135;-71
2021/01/09 06:37:30;;;;;;;17.27;11.53;;;;;;;0.87;80.42;100907.69;5040381;28;20048;-70
2021/01/09 06:39:56;;;;;;;18.13;11.70;;;;;;;0.87;80.60;100908.56;5043155;28;20033;-71
2021/01/09 06:42:22;;;;;;;19.10;11.33;;;;;;;0.89;80.89;100908.59;5042196;28;20079;-71
2021/01/09 06:44:52;;;;;;;18.43;12.00;;;;;;;0.88;80.44;100922.44;5041807;28;20033;-71
2021/01/09 06:47:55;;;;;;;18.63;11.60;;;;;;;0.77;81.04;100924.59;5039672;28;20076;-71
2021/01/09 06:50:26;;;;;;;15.52;10.52;;;;;;;0.81;80.93;100934.31;5034784;28;20144;-71
2021/01/09 06:52:54;;;;;;;19.40;12.03;;;;;;;0.78;81.00;100933.28;5042200;28;20037;-71
2021/01/09 06:55:38;;;;;;;18.07;12.03;;;;;;;0.77;81.31;100932.41;5043579;28;20029;-71
2021/01/09 06:58:06;;;;;;;19.07;11.27;;;;;;;0.71;80.99;100932.16;5039610;28;20033;-71
2021/01/09 07:00:32;;;;;;;17.73;11.17;;;;;;;0.72;81.34;100930.44;5039906;28;20184;-71
2021/01/09 07:03:10;;;;;;;20.03;11.87;;;;;;;0.77;81.46;100932.41;5042794;28;20043;-71
2021/01/09 07:05:45;;;;;;;17.73;11.30;;;;;;;0.82;81.28;100935.19;5041892;28;20053;-71
2021/01/09 07:08:19;;;;;;;18.30;11.77;;;;;;;0.87;81.27;100934.53;5039925;28;20045;-71
2021/01/09 07:10:55;;;;;;;17.50;12.23;;;;;;;0.92;81.11;100934.72;5041130;28;20045;-71
2021/01/09 07:13:22;;;;;;;17.87;11.20;;;;;;;0.91;81.09;100935.53;5042774;28;20040;-70
2021/01/09 07:15:48;;;;;;;17.57;11.97;;;;;;;0.86;80.79;100937.06;5041323;28;20029;-70
2021/01/09 07:18:20;;;;;;;16.37;10.87;;;;;;;0.91;81.22;100940.72;5039932;28;20181;-71
2021/01/09 07:20:49;;;;;;;17.23;10.67;;;;;;;0.93;80.44;100943.41;5041160;28;20065;-71
2021/01/09 07:23:16;;;;;;;16.17;10.73;;;;;;;0.92;81.03;100944.22;5042848;28;20072;-71
2021/01/09 07:25:45;;;;;;;17.63;11.20;;;;;;;0.95;80.82;100950.44;5042028;28;20032;-71
2021/01/09 07:28:14;;;;;;;18.00;11.50;;;;;;;0.97;81.00;100950.47;5039530;28;20041;-71
2021/01/09 07:30:41;;;;;;;18.00;10.83;;;;;;;0.97;80.29;100955.69;5040324;28;20030;-71
2021/01/09 07:33:09;;;;;;;15.47;9.83;;;;;;;1.01;80.09;100952.38;5042571;28;20415;-71
2021/01/09 07:35:37;;;;;;;17.87;11.30;;;;;;;0.98;80.40;100954.88;5042938;28;20112;-71
2021/01/09 07:38:04;;;;;;;17.97;12.03;;;;;;;0.97;80.42;100961.78;5039421;28;20087;-71
2021/01/09 07:40:53;;;;;;;17.07;11.20;;;;;;;1.10;80.14;100960.53;5039421;28;20029;-71
2021/01/09 07:43:38;;;;;;;17.03;11.67;;;;;;;1.20;80.12;100969.56;5033558;28;20037;-71
2021/01/09 07:46:29;;;;;;;18.43;11.23;;;;;;;1.24;79.72;100972.38;5032016;28;20042;-71
2021/01/09 07:49:02;;;;;;;15.93;10.70;;;;;;;1.23;79.74;100968.00;5042019;28;20045;-71
2021/01/09 07:51:47;;;;;;;17.03;11.33;;;;;;;1.33;79.54;100977.03;5042818;28;20049;-71
2021/01/09 07:54:28;;;;;;;16.83;11.07;;;;;;;1.43;79.34;100988.66;5032708;28;20033;-71
2021/01/09 07:56:53;;;;;;;16.03;10.37;;;;;;;1.41;79.05;100985.13;5041642;28;20377;-71
2021/01/09 07:59:19;;;;;;;18.57;11.77;;;;;;;1.43;79.60;100991.28;5045852;28;20117;-71
2021/01/09 08:01:45;;;;;;;16.27;10.97;;;;;;;1.44;79.17;101000.84;5045397;28;20044;-71
2021/01/09 08:04:11;;;;;;;15.30;10.05;;;;;;;1.50;79.17;100995.88;5042956;28;20062;-71
2021/01/09 08:06:37;;;;;;;17.40;12.03;;;;;;;1.49;78.79;101000.22;5043529;28;20041;-71
2021/01/09 08:09:03;;;;;;;14.80;10.37;;;;;;;1.58;78.71;100994.44;5046508;28;20041;-71
2021/01/09 08:11:29;;;;;;;17.50;12.00;;;;;;;1.65;78.80;100996.47;5046575;28;20419;-71
2021/01/09 08:14:03;;;;;;;16.50;11.17;;;;;;;1.70;78.10;101009.63;5043476;28;20038;-71
2021/01/09 08:16:28;;;;;;;18.00;11.47;;;;;;;1.72;78.25;101003.66;5043161;28;20400;-71
2021/01/09 08:19:07;;;;;;;15.15;10.20;;;;;;;1.65;78.06;101005.97;5045765;28;20043;-71
2021/01/09 08:21:32;;;;;;;17.08;11.43;;;;;;;1.60;78.48;101003.22;5046510;28;20499;-71
2021/01/09 08:23:58;;;;;;;14.88;9.30;;;;;;;1.62;78.27;101006.72;5042836;28;20049;-71
2021/01/09 08:26:23;;;;;;;13.82;9.48;;;;;;;1.56;78.30;101014.31;5042800;28;20385;-71
2021/01/09 08:28:49;;;;;;;14.05;10.05;;;;;;;1.48;78.80;101015.75;5044784;28;20514;-71
2021/01/09 08:31:15;;;;;;;15.38;9.95;;;;;;;1.53;78.26;101016.81;5046261;28;20037;-71
2021/01/09 08:33:46;;;;;;;14.18;9.98;;;;;;;1.44;78.63;101017.34;5045023;28;20087;-71
2021/01/09 08:36:14;;;;;;;15.00;10.90;;;;;;;1.45;78.70;101018.22;5042802;28;20064;-71
2021/01/09 08:38:40;;;;;;;13.53;9.80;;;;;;;1.48;78.45;101024.44;5043199;28;20038;-71
2021/01/09 08:41:05;;;;;;;14.15;9.27;;;;;;;1.59;78.08;101024.84;5045971;28;20458;-71
2021/01/09 08:43:31;;;;;;;15.07;10.77;;;;;;;1.56;78.63;101022.13;5045763;28;20029;-71
2021/01/09 08:45:56;;;;;;;16.65;10.77;;;;;;;1.58;78.00;101024.78;5043009;28;20519;-71
2021/01/09 08:48:35;;;;;;;14.45;10.40;;;;;;;1.54;78.20;101029.84;5042554;28;20496;-71
2021/01/09 08:51:14;;;;;;;13.88;9.30;;;;;;;1.52;78.29;101033.25;5034400;28;20033;-71
2021/01/09 08:53:55;;;;;;;14.27;9.50;;;;;;;1.54;78.42;101039.38;5042499;28;20100;-71
2021/01/09 08:56:27;;;;;;;15.60;10.40;;;;;;;1.57;78.42;101034.28;5045741;28;20033;-71
2021/01/09 08:58:53;;;;;;;15.05;9.65;;;;;;;1.55;78.16;101043.78;5043287;28;20036;-71
2021/01/09 09:01:24;;;;;;;12.77;9.00;;;;;;;1.61;78.42;101041.41;5043033;28;20446;-71
2021/01/09 09:03:54;;;;;;;14.60;9.80;;;;;;;1.55;78.34;101041.16;5043156;28;20541;-71
2021/01/09 09:06:22;;;;;;;14.00;9.43;;;;;;;1.57;78.64;101044.69;5042189;28;20033;-71
2021/01/09 09:08:48;;;;;;;16.63;11.00;;;;;;;1.62;78.21;101039.69;5043844;28;20037;-71
2021/01/09 09:11:15;;;;;;;18.20;12.20;;;;;;;1.60;78.72;101049.13;5044661;28;20045;-71
2021/01/09 09:13:40;;;;;;;13.90;9.80;;;;;;;1.67;78.62;101046.81;5044290;28;20040;-71
2021/01/09 09:16:17;;;;;;;13.47;9.90;;;;;;;1.67;78.99;101046.81;5042015;28;20078;-71
2021/01/09 09:18:43;;;;;;;13.18;9.57;;;;;;;1.68;78.40;101056.41;5043013;28;20064;-71
2021/01/09 09:21:09;;;;;;;13.27;9.47;;;;;;;1.66;78.33;101050.25;5045463;28;20543;-70
2021/01/09 09:23:35;;;;;;;14.60;8.87;;;;;;;1.62;78.83;101053.56;5044924;28;20043;-69
2021/01/09 09:26:13;;;;;;;15.65;10.93;;;;;;;1.61;78.34;101062.22;5041875;28;20120;-70
2021/01/09 09:29:01;;;;;;;12.80;9.02;;;;;;;1.53;78.77;101069.72;5042278;28;20638;-71
2021/01/09 09:31:29;;;;;;;15.77;10.93;;;;;;;1.56;78.42;101061.16;5045245;28;20044;-71
2021/01/09 09:34:06;;;;;;;16.33;11.40;;;;;;;1.56;79.25;101060.25;5041983;28;20067;-70
2021/01/09 09:36:35;;;;;;;15.43;10.20;;;;;;;1.66;78.65;101065.88;5041742;28;20115;-70
2021/01/09 09:39:11;;;;;;;15.70;10.80;;;;;;;1.51;78.25;101065.28;5033341;28;20042;-71
2021/01/09 09:41:54;;;;;;;18.97;13.03;;;;;;;1.54;78.74;101055.88;5041730;28;20045;-71
2021/01/09 09:44:21;;;;;;;17.17;12.10;;;;;;;1.62;78.22;101058.78;5044636;28;20047;-71
2021/01/09 09:46:48;;;;;;;15.95;11.13;;;;;;;1.66;78.31;101060.69;5043166;28;20040;-71
2021/01/09 09:49:14;;;;;;;15.53;11.43;;;;;;;1.72;78.23;101062.63;5041364;28;20033;-71
2021/01/09 09:51:39;;;;;;;17.57;11.73;;;;;;;1.82;78.05;101056.06;5042032;28;20419;-70
2021/01/09 09:54:05;;;;;;;16.95;11.82;;;;;;;1.80;78.27;101055.09;5044366;28;20044;-71
2021/01/09 09:56:39;;;;;;;16.90;11.38;;;;;;;1.83;77.81;101058.69;5044730;28;20040;-71
2021/01/09 09:59:09;;;;;;;17.42;12.45;;;;;;;1.98;77.53;101051.47;5033703;28;20038;-71
2021/01/09 10:01:35;;;;;;;17.40;12.48;;;;;;;2.13;77.24;101051.16;5041180;28;20037;-71
2021/01/09 10:04:02;;;;;;;18.77;12.38;;;;;;;2.25;77.17;101055.00;5044340;28;20422;-71
2021/01/09 10:06:38;;;;;;;18.73;12.73;;;;;;;2.27;76.06;101053.34;5043341;28;20087;-72
2021/01/09 10:09:17;;;;;;;15.88;11.60;;;;;;;2.23;76.10;101056.66;5033247;28;20029;-71
2021/01/09 10:11:42;;;;;;;17.70;12.75;;;;;;;2.14;76.34;101054.63;5042017;28;20041;-71
2021/01/09 10:14:08;;;;;;;17.35;12.27;;;;;;;2.16;76.53;101064.28;5044062;28;20040;-71
2021/01/09 10:16:34;;;;;;;17.85;13.57;;;;;;;2.10;77.12;101055.38;5044377;28;20053;-71
2021/01/09 10:18:59;;;;;;;18.55;13.70;;;;;;;2.14;76.58;101062.44;5040747;28;20037;-71
2021/01/09 10:21:29;;;;;;;20.17;14.30;;;;;;;2.22;76.77;101065.31;5039690;28;20082;-71
2021/01/09 10:23:56;;;;;;;18.77;12.93;;;;;;;2.30;76.12;101069.97;5041764;28;20132;-70
2021/01/09 10:26:30;;;;;;;16.20;11.88;;;;;;;2.27;75.83;101069.88;5044437;28;20094;-71
2021/01/09 10:28:56;;;;;;;15.95;11.70;;;;;;;2.17;76.11;101071.28;5041143;28;20819;-71
2021/01/09 10:31:47;;;;;;;15.38;10.95;;;;;;;2.10;76.18;101071.00;5040471;28;20040;-71
2021/01/09 10:34:13;;;;;;;16.33;11.60;;;;;;;2.21;76.23;101060.97;5033500;28;20049;-71
2021/01/09 10:36:39;;;;;;;16.17;11.80;;;;;;;2.24;76.42;101066.28;5040971;28;20048;-71
2021/01/09 10:39:06;;;;;;;16.27;11.73;;;;;;;2.23;76.18;101064.47;5043875;28;20075;-71
2021/01/09 10:41:32;;;;;;;18.58;12.95;;;;;;;2.18;76.76;101057.41;5043808;28;20041;-71
2021/01/09 10:43:57;;;;;;;16.67;12.38;;;;;;;2.21;76.45;101054.03;5040250;28;20033;-71
2021/01/09 10:46:25;;;;;;;16.15;11.35;;;;;;;2.13;76.50;101064.16;5040362;28;20124;-71
2021/01/09 10:48:51;;;;;;;16.58;11.80;;;;;;;2.13;76.78;101064.16;5042314;28;20029;-71
2021/01/09 10:51:19;;;;;;;17.95;13.27;;;;;;;2.04;77.49;101063.81;5043620;28;20037;-71
2021/01/09 10:53:45;;;;;;;15.73;11.43;;;;;;;2.05;77.28;101072.53;5041888;28;20049;-71
2021/01/09 10:56:10;;;;;;;15.85;11.38;;;;;;;2.08;77.26;101064.84;5040124;28;20033;-71
2021/01/09 10:58:36;;;;;;;15.45;11.45;;;;;;;2.09;77.29;101067.47;5038785;28;20048;-71
2021/01/09 11:01:01;;;;;;;16.17;12.32;;;;;;;2.10;77.27;101064.06;5043499;28;20029;-70
2021/01/09 11:03:27;;;;;;;15.27;11.27;;;;;;;2.04;76.58;101073.34;5043082;28;20561;-71
2021/01/09 11:05:52;;;;;;;14.60;10.23;;;;;;;1.96;76.56;101060.03;5040939;28;20040;-71
2021/01/09 11:08:17;;;;;;;14.80;10.80;;;;;;;2.02;76.20;101065.50;5042492;28;20021;-71
2021/01/09 11:10:42;;;;;;;15.07;11.25;;;;;;;1.89;76.57;101068.47;5040768;28;20703;-71
2021/01/09 11:13:08;;;;;;;16.40;10.70;;;;;;;2.00;77.00;101066.28;5042946;28;20040;-71
2021/01/09 11:15:33;;;;;;;16.25;11.35;;;;;;;2.01;76.36;101063.72;5043333;28;20056;-71
2021/01/09 11:17:58;;;;;;;17.42;12.27;;;;;;;2.12;76.45;101052.00;5039893;28;20071;-71
2021/01/09 11:20:24;;;;;;;15.00;10.45;;;;;;;2.36;76.11;101057.19;5039725;28;20033;-70